Time;durP1;ratioP1;P1;durP2;ratioP2;P2;SDS_P1;SDS_P2;PMS_P1;PMS_P2;Temp;Humidity;BMP_temperature;BMP_pressure;BME280_temperature;BME280_humidity;BME280_pressure;Samples;Min_cycle;Max_cycle;Signal;HPM_P1;HPM_P2
2024/01/09 00:00:09;;;;;;;14.07;10.40;;;;;;;;;;5111109;28;20290;-76
2024/01/09 00:02:36;;;;;;;17.03;11.23;;;;;;;;;;5111624;28;20203;-77
2024/01/09 00:05:03;;;;;;;13.67;9.67;;;;;;;;;;5111859;28;20221;-77
2024/01/09 00:07:30;;;;;;;12.83;9.47;;;;;;;;;;5111402;28;20641;-77
2024/01/09 00:09:59;;;;;;;14.20;9.50;;;;;;;;;;5111681;28;20700;-77
2024/01/09 00:12:26;;;;;;;15.40;11.17;;;;;;;;;;5111541;28;20243;-76
2024/01/09 00:14:53;;;;;;;12.67;9.27;;;;;;;;;;5111665;28;20354;-76
2024/01/09 00:17:20;;;;;;;13.60;9.90;;;;;;;;;;5111950;28;20237;-77
2024/01/09 00:19:47;;;;;;;13.20;9.57;;;;;;;;;;5111488;28;20285;-76
2024/01/09 00:22:14;;;;;;;15.27;10.50;;;;;;;;;;5111185;28;20225;-76
2024/01/09 00:24:42;;;;;;;15.47;10.90;;;;;;;;;;5111763;28;20229;-77
2024/01/09 00:27:10;;;;;;;14.97;10.50;;;;;;;;;;5111534;28;20285;-77
2024/01/09 00:29:37;;;;;;;12.33;9.33;;;;;;;;;;5111647;28;20642;-77
2024/01/09 00:32:05;;;;;;;17.67;11.50;;;;;;;;;;5111666;28;20752;-76
2024/01/09 00:34:32;;;;;;;18.67;12.07;;;;;;;;;;5111405;28;20669;-77
2024/01/09 00:36:59;;;;;;;17.70;11.47;;;;;;;;;;5111341;28;20289;-77
2024/01/09 00:39:26;;;;;;;15.17;10.47;;;;;;;;;;5111547;28;20663;-76
2024/01/09 00:41:53;;;;;;;13.53;9.93;;;;;;;;;;5111253;28;20225;-76
2024/01/09 00:44:22;;;;;;;14.43;10.37;;;;;;;;;;5111426;28;20773;-77
2024/01/09 00:46:49;;;;;;;14.27;9.47;;;;;;;;;;5111907;28;20196;-77
2024/01/09 00:49:16;;;;;;;13.30;9.63;;;;;;;;;;5111205;28;20773;-77
2024/01/09 00:51:43;;;;;;;13.17;9.47;;;;;;;;;;5111374;28;20225;-76
2024/01/09 00:54:10;;;;;;;13.13;9.33;;;;;;;;;;5111507;28;20283;-76
2024/01/09 00:56:38;;;;;;;13.03;9.23;;;;;;;;;;5111263;28;20280;-77
2024/01/09 00:59:05;;;;;;;9.20;6.87;;;;;;;;;;5111413;28;20637;-76
2024/01/09 01:01:33;;;;;;;9.23;7.30;;;;;;;;;;5111087;28;20773;-75
2024/01/09 01:04:00;;;;;;;9.27;6.67;;;;;;;;;;5111383;28;20229;-77
2024/01/09 01:06:28;;;;;;;10.10;7.13;;;;;;;;;;5110577;28;20293;-77
2024/01/09 01:08:55;;;;;;;10.13;7.23;;;;;;;;;;5111156;28;20218;-77
2024/01/09 01:11:22;;;;;;;9.97;6.70;;;;;;;;;;5112142;28;20231;-76
2024/01/09 01:13:49;;;;;;;9.23;6.50;;;;;;;;;;5115105;28;20196;-77
2024/01/09 01:16:16;;;;;;;9.10;6.20;;;;;;;;;;5114912;28;20362;-76
2024/01/09 01:18:45;;;;;;;9.73;6.90;;;;;;;;;;5115079;28;20195;-77
2024/01/09 01:21:12;;;;;;;10.60;7.10;;;;;;;;;;5114549;28;20245;-77
2024/01/09 01:23:39;;;;;;;9.53;7.00;;;;;;;;;;5115238;28;20278;-76
2024/01/09 01:26:06;;;;;;;9.37;6.60;;;;;;;;;;5114855;28;20263;-76
2024/01/09 01:28:33;;;;;;;11.33;7.87;;;;;;;;;;5114638;28;20290;-77
2024/01/09 01:31:01;;;;;;;12.80;8.33;;;;;;;;;;5114783;28;20274;-76
2024/01/09 01:33:28;;;;;;;11.70;8.20;;;;;;;;;;5114453;28;20233;-77
2024/01/09 01:35:56;;;;;;;8.73;6.90;;;;;;;;;;5114432;28;21093;-77
2024/01/09 01:38:23;;;;;;;9.10;7.03;;;;;;;;;;5114354;28;20218;-78
2024/01/09 01:40:51;;;;;;;9.30;7.33;;;;;;;;;;5114300;28;20226;-76
2024/01/09 01:43:18;;;;;;;10.67;8.00;;;;;;;;;;5114427;28;20273;-77
2024/01/09 01:45:45;;;;;;;11.80;8.00;;;;;;;;;;5114549;28;20278;-77
2024/01/09 01:48:13;;;;;;;12.27;8.67;;;;;;;;;;5114283;28;20275;-76
2024/01/09 01:50:41;;;;;;;10.50;8.03;;;;;;;;;;5114437;28;20190;-77
2024/01/09 01:53:10;;;;;;;12.13;8.63;;;;;;;;;;5114150;28;20266;-76
2024/01/09 01:55:37;;;;;;;11.23;8.23;;;;;;;;;;5114008;28;20261;-77
2024/01/09 01:58:05;;;;;;;11.87;8.87;;;;;;;;;;5114173;28;20234;-77
2024/01/09 02:00:32;;;;;;;12.17;8.57;;;;;;;;;;5113966;28;20261;-77
2024/01/09 02:03:00;;;;;;;11.50;8.50;;;;;;;;;;5113440;28;20274;-77
2024/01/09 02:05:28;;;;;;;11.87;8.40;;;;;;;;;;5113879;28;20701;-76
2024/01/09 02:07:57;;;;;;;11.83;8.37;;;;;;;;;;5105461;28;20236;-76
2024/01/09 02:10:25;;;;;;;11.60;8.30;;;;;;;;;;5100735;28;20214;-77
2024/01/09 02:12:52;;;;;;;11.47;8.23;;;;;;;;;;5093226;28;20205;-76
2024/01/09 02:15:19;;;;;;;13.23;8.97;;;;;;;;;;5093333;28;20275;-77
2024/01/09 02:17:47;;;;;;;10.87;8.10;;;;;;;;;;5093103;28;20285;-76
2024/01/09 02:20:14;;;;;;;12.53;8.43;;;;;;;;;;5093484;28;20668;-76
2024/01/09 02:22:42;;;;;;;11.70;8.43;;;;;;;;;;5092626;28;20290;-76
2024/01/09 02:25:09;;;;;;;11.77;8.43;;;;;;;;;;5093238;28;20293;-76
2024/01/09 02:27:42;;;;;;;12.83;8.83;;;;;;;;;;5093636;28;20290;-77
2024/01/09 02:30:12;;;;;;;12.03;8.57;;;;;;;;;;5093281;28;20282;-77
2024/01/09 02:32:40;;;;;;;13.87;8.83;;;;;;;;;;5098624;28;20229;-76
2024/01/09 02:35:07;;;;;;;12.93;9.03;;;;;;;;;;5101170;28;20246;-77
2024/01/09 02:37:34;;;;;;;13.00;8.90;;;;;;;;;;5111653;28;20236;-76
2024/01/09 02:40:02;;;;;;;13.03;8.73;;;;;;;;;;5113289;28;20285;-77
2024/01/09 02:42:30;;;;;;;12.57;9.07;;;;;;;;;;5112838;28;20199;-76
2024/01/09 02:44:57;;;;;;;12.77;9.37;;;;;;;;;;5113445;28;20286;-76
2024/01/09 02:47:26;;;;;;;13.07;9.00;;;;;;;;;;5113028;28;20289;-76
2024/01/09 02:49:53;;;;;;;13.53;9.50;;;;;;;;;;5112950;28;20220;-76
2024/01/09 02:52:20;;;;;;;12.90;9.00;;;;;;;;;;5113387;28;20282;-76
2024/01/09 02:54:47;;;;;;;12.47;9.17;;;;;;;;;;5112759;28;20321;-76
2024/01/09 02:57:15;;;;;;;12.23;8.77;;;;;;;;;;5112935;28;20687;-77
2024/01/09 02:59:42;;;;;;;12.27;9.30;;;;;;;;;;5112568;28;20264;-76
2024/01/09 03:02:09;;;;;;;14.13;9.80;;;;;;;;;;5112604;28;20197;-77
2024/01/09 03:04:38;;;;;;;12.93;8.83;;;;;;;;;;5113013;28;20212;-76
2024/01/09 03:07:05;;;;;;;13.10;9.60;;;;;;;;;;5112656;28;20740;-77
2024/01/09 03:09:33;;;;;;;13.13;8.97;;;;;;;;;;5112769;28;20292;-77
2024/01/09 03:12:00;;;;;;;12.13;8.97;;;;;;;;;;5112910;28;20583;-77
2024/01/09 03:14:28;;;;;;;14.17;9.27;;;;;;;;;;5112533;28;20763;-76
2024/01/09 03:16:55;;;;;;;12.70;8.97;;;;;;;;;;5103639;28;20629;-76
2024/01/09 03:19:22;;;;;;;13.07;9.27;;;;;;;;;;5100337;28;20234;-77
2024/01/09 03:21:51;;;;;;;12.63;9.13;;;;;;;;;;5091893;28;20755;-77
2024/01/09 03:24:18;;;;;;;12.57;9.20;;;;;;;;;;5091890;28;20298;-77
2024/01/09 03:26:45;;;;;;;12.00;8.57;;;;;;;;;;5091983;28;20236;-78
2024/01/09 03:29:12;;;;;;;13.23;9.13;;;;;;;;;;5091931;28;20266;-76
2024/01/09 03:31:39;;;;;;;12.33;9.13;;;;;;;;;;5091556;28;20215;-77
2024/01/09 03:34:07;;;;;;;12.70;9.57;;;;;;;;;;5091353;28;20732;-77
2024/01/09 03:36:35;;;;;;;12.57;8.80;;;;;;;;;;5101955;28;20321;-77
2024/01/09 03:39:05;;;;;;;13.03;9.40;;;;;;;;;;5112164;28;20291;-77
2024/01/09 03:41:32;;;;;;;12.33;8.93;;;;;;;;;;5112245;28;20198;-77
2024/01/09 03:44:00;;;;;;;13.73;9.40;;;;;;;;;;5111452;28;20200;-77
2024/01/09 03:46:27;;;;;;;13.03;9.47;;;;;;;;;;5112162;28;20223;-77
2024/01/09 03:48:54;;;;;;;13.60;9.70;;;;;;;;;;5112138;28;20679;-76
2024/01/09 03:51:21;;;;;;;14.97;9.97;;;;;;;;;;5111624;28;20291;-76
2024/01/09 03:53:48;;;;;;;13.23;9.50;;;;;;;;;;5111773;28;20219;-76
2024/01/09 03:56:17;;;;;;;15.10;9.93;;;;;;;;;;5111933;28;20253;-77
2024/01/09 03:58:44;;;;;;;15.10;9.73;;;;;;;;;;5111844;28;20289;-77
2024/01/09 04:01:12;;;;;;;16.33;10.73;;;;;;;;;;5111571;28;20676;-77
2024/01/09 04:03:39;;;;;;;15.27;10.20;;;;;;;;;;5111891;28;20192;-77
2024/01/09 04:06:07;;;;;;;16.03;10.37;;;;;;;;;;5112215;28;20248;-77
2024/01/09 04:08:34;;;;;;;13.87;9.90;;;;;;;;;;5111733;28;20656;-76
2024/01/09 04:11:04;;;;;;;14.73;10.20;;;;;;;;;;5111629;28;20244;-77
2024/01/09 04:13:32;;;;;;;16.47;11.03;;;;;;;;;;5111265;28;20260;-77
2024/01/09 04:15:59;;;;;;;14.93;10.30;;;;;;;;;;5111648;28;20229;-76
2024/01/09 04:18:27;;;;;;;13.13;9.97;;;;;;;;;;5111346;28;20220;-77
2024/01/09 04:20:54;;;;;;;13.97;10.10;;;;;;;;;;5111509;28;20190;-77
2024/01/09 04:23:21;;;;;;;14.70;10.47;;;;;;;;;;5111644;28;20719;-77
2024/01/09 04:25:48;;;;;;;16.13;10.57;;;;;;;;;;5111616;28;20262;-77
2024/01/09 04:28:15;;;;;;;15.43;10.60;;;;;;;;;;5111086;28;20287;-77
2024/01/09 04:30:44;;;;;;;15.27;10.30;;;;;;;;;;5111495;28;20225;-77
2024/01/09 04:33:11;;;;;;;14.60;10.47;;;;;;;;;;5111449;28;20251;-77
2024/01/09 04:35:38;;;;;;;15.33;10.63;;;;;;;;;;5111033;28;20703;-77
2024/01/09 04:38:06;;;;;;;15.63;10.63;;;;;;;;;;5111288;28;20247;-77
2024/01/09 04:40:33;;;;;;;14.53;10.63;;;;;;;;;;5111477;28;20729;-76
2024/01/09 04:43:00;;;;;;;17.27;11.07;;;;;;;;;;5110648;28;20195;-76
2024/01/09 04:45:27;;;;;;;15.07;10.07;;;;;;;;;;5112959;28;20235;-78
2024/01/09 04:47:56;;;;;;;15.03;10.07;;;;;;;;;;5115760;28;20205;-77
2024/01/09 04:50:23;;;;;;;16.93;11.00;;;;;;;;;;5115595;28;20215;-77
2024/01/09 04:52:50;;;;;;;15.07;10.43;;;;;;;;;;5115592;28;20281;-77
2024/01/09 04:55:17;;;;;;;15.40;10.47;;;;;;;;;;5115725;28;20225;-77
2024/01/09 04:57:44;;;;;;;14.17;10.17;;;;;;;;;;5114953;28;20196;-77
2024/01/09 05:00:12;;;;;;;15.40;10.77;;;;;;;;;;5114994;28;20225;-77
2024/01/09 05:02:39;;;;;;;16.27;10.73;;;;;;;;;;5115116;28;20202;-77
2024/01/09 05:05:09;;;;;;;14.80;10.50;;;;;;;;;;5115385;28;20192;-77
2024/01/09 05:07:36;;;;;;;15.70;10.63;;;;;;;;;;5115354;28;20226;-76
2024/01/09 05:10:04;;;;;;;16.03;11.13;;;;;;;;;;5115136;28;20210;-77
2024/01/09 05:12:31;;;;;;;17.77;11.63;;;;;;;;;;5114969;28;20658;-77
2024/01/09 05:14:58;;;;;;;19.00;11.90;;;;;;;;;;5114555;28;20287;-76
2024/01/09 05:17:25;;;;;;;18.10;11.80;;;;;;;;;;5115057;28;20751;-77
2024/01/09 05:19:53;;;;;;;16.77;11.97;;;;;;;;;;5114906;28;20281;-76
2024/01/09 05:22:21;;;;;;;19.43;12.77;;;;;;;;;;5115032;28;20321;-79
2024/01/09 05:24:49;;;;;;;18.30;12.37;;;;;;;;;;5114836;28;20225;-78
2024/01/09 05:27:16;;;;;;;17.57;12.50;;;;;;;;;;5114735;28;20301;-79
2024/01/09 05:29:43;;;;;;;18.67;12.50;;;;;;;;;;5114790;28;20318;-81
2024/01/09 05:32:10;;;;;;;21.00;13.07;;;;;;;;;;5114302;28;20198;-81
2024/01/09 05:34:37;;;;;;;20.30;12.90;;;;;;;;;;5114890;28;20229;-81
2024/01/09 05:37:05;;;;;;;22.83;13.57;;;;;;;;;;5105048;28;20226;-81
2024/01/09 05:39:33;;;;;;;21.33;14.00;;;;;;;;;;5094171;28;20303;-78
2024/01/09 05:42:00;;;;;;;21.50;13.57;;;;;;;;;;5093821;28;20233;-81
2024/01/09 05:44:27;;;;;;;22.30;13.43;;;;;;;;;;5108279;28;20699;-80
2024/01/09 05:46:55;;;;;;;22.20;14.07;;;;;;;;;;5114411;28;20201;-79
2024/01/09 05:49:22;;;;;;;22.73;14.03;;;;;;;;;;5114169;28;20232;-80
2024/01/09 05:51:49;;;;;;;23.97;14.53;;;;;;;;;;5114430;28;20221;-80
2024/01/09 05:54:16;;;;;;;23.80;14.93;;;;;;;;;;5114357;28;20618;-80
2024/01/09 05:56:45;;;;;;;24.07;14.70;;;;;;;;;;5113126;28;20312;-80
2024/01/09 05:59:12;;;;;;;22.23;13.93;;;;;;;;;;5114243;28;20238;-80
2024/01/09 06:01:39;;;;;;;22.57;14.67;;;;;;;;;;5113773;28;20238;-81
2024/01/09 06:04:06;;;;;;;24.80;15.17;;;;;;;;;;5114320;28;20198;-80
2024/01/09 06:06:34;;;;;;;23.60;14.87;;;;;;;;;;5114213;28;20225;-80
2024/01/09 06:09:01;;;;;;;25.97;15.93;;;;;;;;;;5113722;28;20197;-80
2024/01/09 06:11:29;;;;;;;24.40;14.90;;;;;;;;;;5113664;28;20247;-80
2024/01/09 06:13:58;;;;;;;24.03;15.20;;;;;;;;;;5112974;28;20234;-80
2024/01/09 06:16:25;;;;;;;25.60;15.83;;;;;;;;;;5113650;28;20695;-80
2024/01/09 06:18:52;;;;;;;27.30;16.73;;;;;;;;;;5113728;28;20309;-80
2024/01/09 06:21:19;;;;;;;27.23;15.93;;;;;;;;;;5113516;28;20280;-80
2024/01/09 06:23:48;;;;;;;27.60;16.13;;;;;;;;;;5113569;27;20201;-81
2024/01/09 06:26:15;;;;;;;24.70;14.87;;;;;;;;;;5113435;28;20266;-80
2024/01/09 06:28:43;;;;;;;27.47;16.23;;;;;;;;;;5114043;28;20651;-82
2024/01/09 06:31:12;;;;;;;27.63;16.80;;;;;;;;;;5113958;28;20232;-82
2024/01/09 06:33:39;;;;;;;26.77;16.43;;;;;;;;;;5113313;28;20678;-80
2024/01/09 06:36:06;;;;;;;27.67;16.20;;;;;;;;;;5113211;28;20705;-80
2024/01/09 06:38:33;;;;;;;28.73;17.20;;;;;;;;;;5112970;28;20196;-81
2024/01/09 06:41:01;;;;;;;29.77;17.57;;;;;;;;;;5113285;28;20300;-78
2024/01/09 06:43:28;;;;;;;28.97;18.43;;;;;;;;;;5113269;28;20277;-80
2024/01/09 06:45:55;;;;;;;41.93;25.33;;;;;;;;;;5113221;28;20205;-81
2024/01/09 06:48:24;;;;;;;31.80;19.30;;;;;;;;;;5113508;28;20219;-82
2024/01/09 06:50:52;;;;;;;35.57;22.20;;;;;;;;;;5113192;28;20225;-79
2024/01/09 06:53:19;;;;;;;33.73;20.30;;;;;;;;;;5108359;28;20288;-82
2024/01/09 06:55:47;;;;;;;29.67;19.20;;;;;;;;;;5106710;28;20226;-81
2024/01/09 06:58:16;;;;;;;43.27;27.80;;;;;;;;;;5101603;27;20236;-81
2024/01/09 07:00:43;;;;;;;41.83;26.30;;;;;;;;;;5107675;27;20229;-82
2024/01/09 07:03:10;;;;;;;42.47;27.47;;;;;;;;;;5109195;28;20202;-81
2024/01/09 07:05:39;;;;;;;49.63;34.93;;;;;;;;;;5112556;28;20200;-81
2024/01/09 07:08:07;;;;;;;34.17;21.03;;;;;;;;;;5111797;28;20217;-80
2024/01/09 07:10:34;;;;;;;31.07;19.43;;;;;;;;;;5104876;28;20828;-81
2024/01/09 07:13:01;;;;;;;31.57;20.90;;;;;;;;;;5098941;28;20717;-81
2024/01/09 07:15:28;;;;;;;41.77;28.00;;;;;;;;;;5108601;28;20271;-80
2024/01/09 07:17:56;;;;;;;32.73;20.70;;;;;;;;;;5101388;28;20262;-81
2024/01/09 07:20:23;;;;;;;32.07;19.37;;;;;;;;;;5092071;28;20221;-80
2024/01/09 07:22:51;;;;;;;31.27;19.57;;;;;;;;;;5091677;28;20230;-80
2024/01/09 07:25:18;;;;;;;31.90;19.20;;;;;;;;;;5098472;28;20624;-81
2024/01/09 07:27:46;;;;;;;33.70;20.33;;;;;;;;;;5109599;28;20389;-81
2024/01/09 07:30:13;;;;;;;33.80;21.20;;;;;;;;;;5108726;28;20681;-80
2024/01/09 07:32:41;;;;;;;39.57;23.67;;;;;;;;;;5103528;28;20579;-81
2024/01/09 07:35:08;;;;;;;40.23;24.07;;;;;;;;;;5112060;28;20622;-81
2024/01/09 07:37:36;;;;;;;35.23;20.70;;;;;;;;;;5111631;28;20233;-81
2024/01/09 07:40:05;;;;;;;37.17;22.10;;;;;;;;;;5111985;28;20231;-81
2024/01/09 07:42:33;;;;;;;41.13;25.80;;;;;;;;;;5111791;28;20189;-81
2024/01/09 07:45:00;;;;;;;34.97;20.80;;;;;;;;;;5111652;28;20199;-81
2024/01/09 07:47:27;;;;;;;33.67;19.50;;;;;;;;;;5112247;28;20238;-81
2024/01/09 07:49:54;;;;;;;31.80;19.73;;;;;;;;;;5111485;28;20733;-81
2024/01/09 07:52:22;;;;;;;51.43;31.20;;;;;;;;;;5111071;28;20594;-81
2024/01/09 07:54:49;;;;;;;38.40;22.57;;;;;;;;;;5109296;28;20194;-81
2024/01/09 07:57:18;;;;;;;47.23;27.33;;;;;;;;;;5111370;28;20582;-80
2024/01/09 07:59:45;;;;;;;39.40;24.13;;;;;;;;;;5109523;28;20236;-81
2024/01/09 08:02:13;;;;;;;37.27;24.03;;;;;;;;;;5106553;28;20205;-81
2024/01/09 08:04:40;;;;;;;35.10;20.60;;;;;;;;;;5111534;28;20194;-81
2024/01/09 08:07:07;;;;;;;32.47;19.73;;;;;;;;;;5109961;28;20197;-81
2024/01/09 08:09:35;;;;;;;33.00;19.77;;;;;;;;;;5111563;28;20730;-81
2024/01/09 08:12:02;;;;;;;34.93;20.87;;;;;;;;;;5111738;28;20275;-80
2024/01/09 08:14:31;;;;;;;35.73;20.63;;;;;;;;;;5111313;28;20203;-81
2024/01/09 08:16:58;;;;;;;37.67;21.57;;;;;;;;;;5111480;28;20289;-81
2024/01/09 08:19:25;;;;;;;36.37;20.77;;;;;;;;;;5111338;28;20203;-81
2024/01/09 08:21:53;;;;;;;33.37;20.60;;;;;;;;;;5110676;28;20284;-81
2024/01/09 08:24:20;;;;;;;50.47;32.63;;;;;;;;;;5110737;28;20675;-81
2024/01/09 08:26:48;;;;;;;43.67;27.83;;;;;;;;;;5111527;28;20901;-81
2024/01/09 08:29:16;;;;;;;35.03;22.00;;;;;;;;;;5111591;28;20255;-81
2024/01/09 08:31:48;;;;;;;38.43;23.43;;;;;;;;;;5111856;28;20268;-81
2024/01/09 08:34:15;;;;;;;36.33;22.23;;;;;;;;;;5111041;28;20289;-80
2024/01/09 08:36:43;;;;;;;51.03;30.93;;;;;;;;;;5111172;28;20218;-82
2024/01/09 08:39:11;;;;;;;54.77;35.77;;;;;;;;;;5111479;28;20628;-81
2024/01/09 08:41:38;;;;;;;109.63;66.30;;;;;;;;;;5111537;28;20197;-81
2024/01/09 08:44:05;;;;;;;47.00;26.93;;;;;;;;;;5111143;28;20755;-81
2024/01/09 08:46:33;;;;;;;38.23;23.33;;;;;;;;;;5110820;28;20650;-81
2024/01/09 08:49:01;;;;;;;37.77;23.20;;;;;;;;;;5110920;28;20197;-81
2024/01/09 08:51:29;;;;;;;49.97;31.87;;;;;;;;;;5111596;28;20195;-81
2024/01/09 08:53:56;;;;;;;95.77;52.83;;;;;;;;;;5110715;28;20192;-82
2024/01/09 08:56:23;;;;;;;106.10;57.40;;;;;;;;;;5110571;28;20222;-81
2024/01/09 08:58:51;;;;;;;85.40;47.27;;;;;;;;;;5110875;28;20225;-81
2024/01/09 09:01:20;;;;;;;304.80;185.30;;;;;;;;;;5110597;28;20740;-82
2024/01/09 09:03:50;;;;;;;143.43;99.47;;;;;;;;;;5110797;28;20754;-81
2024/01/09 09:06:20;;;;;;;53.13;33.73;;;;;;;;;;5111279;28;20646;-80
2024/01/09 09:08:47;;;;;;;54.47;35.23;;;;;;;;;;5110728;28;20605;-80
2024/01/09 09:11:14;;;;;;;50.60;32.37;;;;;;;;;;5110501;28;20751;-83
2024/01/09 09:13:42;;;;;;;123.90;74.20;;;;;;;;;;5111132;28;20196;-82
2024/01/09 09:16:10;;;;;;;118.30;69.33;;;;;;;;;;5110942;28;20572;-83
2024/01/09 09:18:37;;;;;;;46.57;32.70;;;;;;;;;;5110712;28;20319;-81
2024/01/09 09:21:05;;;;;;;36.30;25.60;;;;;;;;;;5110996;28;20293;-81
2024/01/09 09:23:34;;;;;;;44.70;30.10;;;;;;;;;;5110881;28;20191;-82
2024/01/09 09:26:01;;;;;;;35.40;21.10;;;;;;;;;;5107381;28;20210;-81
2024/01/09 09:28:30;;;;;;;38.33;22.40;;;;;;;;;;5097278;28;20230;-81
2024/01/09 09:30:57;;;;;;;44.53;28.57;;;;;;;;;;5100727;28;20276;-82
2024/01/09 09:33:27;;;;;;;74.87;55.33;;;;;;;;;;5112765;28;20341;-81
2024/01/09 09:35:54;;;;;;;47.80;35.97;;;;;;;;;;5114909;27;20289;-82
2024/01/09 09:38:22;;;;;;;35.97;21.10;;;;;;;;;;5113981;28;20320;-82
2024/01/09 09:40:51;;;;;;;37.93;26.43;;;;;;;;;;5114083;28;20229;-81
2024/01/09 09:43:25;;;;;;;37.77;22.00;;;;;;;;;;5109102;28;20250;-82
2024/01/09 09:45:56;;;;;;;34.03;19.83;;;;;;;;;;5114134;28;20193;-82
2024/01/09 09:48:24;;;;;;;32.70;19.67;;;;;;;;;;5113218;28;20191;-81
2024/01/09 09:50:53;;;;;;;33.03;19.83;;;;;;;;;;5113993;28;20227;-81
2024/01/09 09:53:20;;;;;;;33.80;19.93;;;;;;;;;;5113719;28;20206;-81
2024/01/09 09:55:48;;;;;;;32.10;19.50;;;;;;;;;;5108324;28;20200;-81
2024/01/09 09:58:17;;;;;;;31.20;19.50;;;;;;;;;;5110125;28;20226;-81
2024/01/09 10:00:44;;;;;;;31.03;19.37;;;;;;;;;;5113497;28;20269;-81
2024/01/09 10:03:13;;;;;;;33.07;20.07;;;;;;;;;;5120366;27;20283;-82
2024/01/09 10:05:43;;;;;;;33.77;19.27;;;;;;;;;;5113178;28;20219;-81
2024/01/09 10:08:10;;;;;;;33.43;20.27;;;;;;;;;;5113357;27;20278;-82
2024/01/09 10:10:38;;;;;;;35.57;22.00;;;;;;;;;;5110159;27;20195;-82
2024/01/09 10:13:05;;;;;;;67.10;51.07;;;;;;;;;;5104041;28;20316;-81
2024/01/09 10:15:35;;;;;;;33.40;20.83;;;;;;;;;;5109968;28;20283;-81
2024/01/09 10:18:02;;;;;;;31.53;20.20;;;;;;;;;;5102311;28;20230;-82
2024/01/09 10:20:30;;;;;;;78.40;51.20;;;;;;;;;;5100394;28;20225;-82
2024/01/09 10:22:58;;;;;;;34.83;22.60;;;;;;;;;;5093284;27;20554;-81
2024/01/09 10:25:26;;;;;;;29.13;18.30;;;;;;;;;;5113052;28;20204;-81
2024/01/09 10:27:53;;;;;;;32.60;19.67;;;;;;;;;;5109695;28;20306;-82
2024/01/09 10:30:22;;;;;;;30.00;18.13;;;;;;;;;;5111712;28;20253;-81
2024/01/09 10:32:53;;;;;;;36.40;21.70;;;;;;;;;;5113006;28;20202;-82
2024/01/09 10:35:20;;;;;;;29.27;17.73;;;;;;;;;;5113019;27;20191;-82
2024/01/09 10:37:47;;;;;;;37.40;23.27;;;;;;;;;;5092310;28;20237;-82
2024/01/09 10:40:14;;;;;;;32.23;19.10;;;;;;;;;;5103215;28;20287;-82
2024/01/09 10:42:48;;;;;;;28.17;17.03;;;;;;;;;;5112124;28;20299;-82
2024/01/09 10:45:19;;;;;;;33.13;20.80;;;;;;;;;;5100573;28;20201;-80
2024/01/09 10:47:46;;;;;;;31.70;20.00;;;;;;;;;;5129992;27;20288;-82
2024/01/09 10:50:15;;;;;;;31.10;20.23;;;;;;;;;;5100354;28;20668;-81
2024/01/09 10:52:43;;;;;;;26.90;17.57;;;;;;;;;;5107061;28;20228;-82
2024/01/09 10:55:11;;;;;;;24.70;16.47;;;;;;;;;;5112612;28;20223;-82
2024/01/09 10:57:39;;;;;;;31.33;19.60;;;;;;;;;;5098213;28;20763;-82
2024/01/09 11:00:08;;;;;;;30.97;20.57;;;;;;;;;;5096154;28;20318;-82
2024/01/09 11:02:36;;;;;;;30.20;20.63;;;;;;;;;;5107459;28;20745;-81
2024/01/09 11:05:03;;;;;;;29.40;19.33;;;;;;;;;;5109184;28;20199;-81
2024/01/09 11:07:32;;;;;;;27.97;17.80;;;;;;;;;;5111247;28;20232;-82
2024/01/09 11:10:00;;;;;;;27.23;18.40;;;;;;;;;;5111101;28;20196;-82
2024/01/09 11:12:30;;;;;;;30.20;18.63;;;;;;;;;;5111277;28;20253;-80
2024/01/09 11:14:59;;;;;;;23.63;15.97;;;;;;;;;;5091684;28;20232;-82
2024/01/09 11:17:27;;;;;;;26.07;17.00;;;;;;;;;;5098122;28;20326;-80
2024/01/09 11:19:54;;;;;;;27.53;16.90;;;;;;;;;;5096508;28;20289;-81
2024/01/09 11:22:21;;;;;;;27.90;17.87;;;;;;;;;;5105540;28;20232;-81
2024/01/09 11:24:55;;;;;;;30.67;18.97;;;;;;;;;;5096991;27;20569;-81
2024/01/09 11:27:22;;;;;;;28.47;18.50;;;;;;;;;;5108269;28;20214;-81
2024/01/09 11:29:50;;;;;;;26.07;18.10;;;;;;;;;;5111542;28;20243;-82
2024/01/09 11:32:17;;;;;;;27.83;20.07;;;;;;;;;;5112053;28;20308;-81
2024/01/09 11:34:45;;;;;;;41.40;29.23;;;;;;;;;;5126065;27;20199;-82
2024/01/09 11:37:16;;;;;;;26.43;17.90;;;;;;;;;;5116717;27;20296;-81
2024/01/09 11:39:45;;;;;;;25.93;16.13;;;;;;;;;;5111867;28;20297;-81
2024/01/09 11:42:13;;;;;;;30.10;18.10;;;;;;;;;;5111953;28;20280;-81
2024/01/09 11:44:41;;;;;;;43.47;29.90;;;;;;;;;;5111343;28;20270;-81
2024/01/09 11:47:08;;;;;;;21.93;15.10;;;;;;;;;;5112329;28;20190;-81
2024/01/09 11:49:35;;;;;;;22.03;14.67;;;;;;;;;;5111696;28;20254;-82
2024/01/09 11:52:03;;;;;;;48.50;31.57;;;;;;;;;;5128684;27;20294;-82
2024/01/09 11:54:32;;;;;;;25.37;16.77;;;;;;;;;;5131269;27;20667;-81
2024/01/09 11:56:59;;;;;;;55.60;37.23;;;;;;;;;;5131533;27;20200;-81
2024/01/09 11:59:28;;;;;;;30.03;19.43;;;;;;;;;;5131654;27;20731;-81
2024/01/09 12:01:55;;;;;;;30.27;20.47;;;;;;;;;;5132241;27;20867;-81
2024/01/09 12:04:22;;;;;;;28.70;19.83;;;;;;;;;;5131827;27;20291;-81
2024/01/09 12:06:49;;;;;;;29.90;20.60;;;;;;;;;;5132309;27;20208;-82
2024/01/09 12:09:16;;;;;;;28.17;19.17;;;;;;;;;;5130945;27;20280;-82
2024/01/09 12:11:44;;;;;;;23.70;15.90;;;;;;;;;;5131690;27;20196;-83
2024/01/09 12:14:11;;;;;;;26.03;18.67;;;;;;;;;;5116151;27;20284;-81
2024/01/09 12:16:41;;;;;;;25.27;18.60;;;;;;;;;;5111589;28;20229;-81
2024/01/09 12:19:08;;;;;;;24.60;15.83;;;;;;;;;;5109295;28;20316;-82
2024/01/09 12:21:35;;;;;;;26.30;16.90;;;;;;;;;;5110282;28;20300;-82
2024/01/09 12:24:04;;;;;;;23.93;14.27;;;;;;;;;;5110536;28;20683;-82
2024/01/09 12:26:32;;;;;;;24.10;15.47;;;;;;;;;;5110154;28;20262;-81
2024/01/09 12:29:00;;;;;;;23.90;14.83;;;;;;;;;;5110418;28;20678;-81
2024/01/09 12:31:27;;;;;;;26.37;16.63;;;;;;;;;;5107848;28;20280;-82
2024/01/09 12:33:56;;;;;;;26.87;17.17;;;;;;;;;;5110024;28;20209;-83
2024/01/09 12:36:23;;;;;;;24.67;16.67;;;;;;;;;;5109992;28;20225;-83
2024/01/09 12:38:51;;;;;;;23.77;16.00;;;;;;;;;;5110594;28;20594;-82
2024/01/09 12:41:21;;;;;;;23.07;14.83;;;;;;;;;;5110119;28;20250;-82
2024/01/09 12:43:48;;;;;;;26.43;16.13;;;;;;;;;;5111486;28;20197;-82
2024/01/09 12:46:15;;;;;;;23.37;15.73;;;;;;;;;;5112130;28;20217;-83
2024/01/09 12:48:43;;;;;;;21.77;13.90;;;;;;;;;;5111417;28;20292;-82
2024/01/09 12:51:12;;;;;;;21.77;14.27;;;;;;;;;;5106945;28;20221;-82
2024/01/09 12:53:41;;;;;;;20.47;13.10;;;;;;;;;;5102534;28;20239;-82
2024/01/09 12:56:09;;;;;;;22.17;13.70;;;;;;;;;;5110605;28;20246;-81
2024/01/09 12:58:37;;;;;;;21.07;13.27;;;;;;;;;;5110590;28;20233;-81
2024/01/09 13:01:05;;;;;;;19.37;12.90;;;;;;;;;;5110645;28;20236;-82
2024/01/09 13:03:33;;;;;;;19.03;12.80;;;;;;;;;;5111495;28;20198;-82
2024/01/09 13:06:04;;;;;;;19.57;13.23;;;;;;;;;;5111565;28;20207;-82
2024/01/09 13:08:33;;;;;;;19.33;13.07;;;;;;;;;;5115083;28;20295;-81
2024/01/09 13:11:02;;;;;;;20.73;13.80;;;;;;;;;;5114531;28;20198;-82
2024/01/09 13:13:30;;;;;;;18.07;12.27;;;;;;;;;;5114781;28;20205;-81
2024/01/09 13:15:57;;;;;;;17.70;12.13;;;;;;;;;;5114809;28;20220;-81
2024/01/09 13:18:24;;;;;;;19.20;12.40;;;;;;;;;;5114500;28;20328;-81
2024/01/09 13:20:51;;;;;;;19.87;12.33;;;;;;;;;;5114821;28;20228;-81
2024/01/09 13:23:19;;;;;;;18.77;12.40;;;;;;;;;;5114673;28;20190;-81
2024/01/09 13:25:49;;;;;;;18.50;11.93;;;;;;;;;;5114250;28;20738;-81
2024/01/09 13:28:16;;;;;;;16.70;11.63;;;;;;;;;;5114614;28;20255;-82
2024/01/09 13:30:43;;;;;;;17.73;11.87;;;;;;;;;;5114901;28;20645;-82
2024/01/09 13:33:10;;;;;;;18.43;11.80;;;;;;;;;;5114525;28;20224;-81
2024/01/09 13:35:39;;;;;;;18.40;12.23;;;;;;;;;;5113891;28;20197;-81
2024/01/09 13:38:07;;;;;;;18.40;11.97;;;;;;;;;;5114165;28;20709;-81
2024/01/09 13:40:34;;;;;;;19.03;11.97;;;;;;;;;;5114218;28;20250;-80
2024/01/09 13:43:04;;;;;;;20.23;15.00;;;;;;;;;;5114283;28;20614;-81
2024/01/09 13:45:31;;;;;;;20.40;13.87;;;;;;;;;;5114186;28;20197;-81
2024/01/09 13:47:59;;;;;;;21.10;14.50;;;;;;;;;;5113673;28;20280;-81
2024/01/09 13:50:26;;;;;;;19.57;14.37;;;;;;;;;;5114311;28;20197;-81
2024/01/09 13:52:54;;;;;;;37.23;25.30;;;;;;;;;;5114292;28;20726;-82
2024/01/09 13:55:21;;;;;;;19.10;14.30;;;;;;;;;;5113810;28;20202;-81
2024/01/09 13:57:49;;;;;;;45.90;32.67;;;;;;;;;;5113987;28;20193;-82
2024/01/09 14:00:17;;;;;;;19.73;13.73;;;;;;;;;;5113741;28;20253;-82
2024/01/09 14:02:45;;;;;;;17.40;12.57;;;;;;;;;;5113889;28;20200;-81
2024/01/09 14:05:15;;;;;;;17.57;12.13;;;;;;;;;;5113733;28;20281;-81
2024/01/09 14:07:42;;;;;;;30.23;23.33;;;;;;;;;;5113405;28;20271;-81
2024/01/09 14:10:10;;;;;;;19.90;15.60;;;;;;;;;;5113896;28;20196;-81
2024/01/09 14:12:37;;;;;;;30.17;22.30;;;;;;;;;;5113700;28;20201;-81
2024/01/09 14:15:05;;;;;;;24.57;17.87;;;;;;;;;;5113588;28;20221;-82
2024/01/09 14:17:34;;;;;;;21.40;16.53;;;;;;;;;;5113166;28;20199;-81
2024/01/09 14:20:01;;;;;;;20.57;13.73;;;;;;;;;;5112749;28;20349;-81
2024/01/09 14:22:28;;;;;;;18.63;13.10;;;;;;;;;;5113797;28;20225;-80